Welcome to Trans World Virtual Airlines!

Welcome TWVA's Newest Pilot:

TWA2313 Bryan Heald

Not a Trans World pilot yet?
Apply Now!




Sign-in with your pilot id or email, or register

Flight TWA1564

  • Submitted By: Austin Hill
  • Departure Airport: Los Angeles International Airport (KLAX)
  • Arrival Airport: Dallas/Fort Worth International Airport (KDFW)
  • Aircraft: MD-83 (N44266TW)
  • Flight Time: 02.57
  • Date Submitted: 04/21/2018
  • Route: PDZ YCDIL BLH SALOM KOFFA PXR TAGGS TMACK TCS CME ABI FUZ KDFW
  • Status: Accepted
Flight Details
Gross Revenue:
(116 load / $ 450.00 per unit
$ 52, 200.00
Fuel Cost:
(24630 fuel used @ 0.8 / unit)
$ 19, 704.00

Additional Log Information:

View Log

FS[15:11] Aircraft Title - MD_83 Paint4
FS[15:11] Aircraft Model - MD83
FS[15:11] Flight Number TWA1564
FS[15:11] Departure KLAX
FS[15:11] Destination KDFW
FS[15:11] Boarding
FS[15:17] Pushing Back
FS[15:20] Taxiing to Runway
FS[15:26] Taking Off
FS[15:26] Taking Off
FS[15:26] 189kts
FS[15:26] pitch angle 6 degrees
FS[15:26] 37455 (lbs) of fuel onboard
FS[15:27] Climbing
FS[15:44] TOC Reached
FS[15:44] Cruise 35000
FS[17:26] TOD Reached
FS[17:26] Descending
FS[17:40] On Approach
FS[17:44] Landing Rate -153fpm
FS[17:44] 16010 (lbs) of fuel onboard
FS[17:44] pitch angle 9 degrees
FS[17:45] Taxiing to Gate
FS[17:59] Arrived
FS[18:05] Max Sim Rate: 1x
FS[18:05] kACARS_Free Version 1.0.1.1

Comments

Commenter Comment
Austin Hill KLAX 211505Z 10705KT 10SM CLR 21/09 A3006 // KDFW 211729Z 26503KT 10SM BKN010 18/16 A2993

Route Map